Time;durP1;ratioP1;P1;durP2;ratioP2;P2;SDS_P1;SDS_P2;PMS_P1;PMS_P2;Temp;Humidity;BMP_temperature;BMP_pressure;BME280_temperature;BME280_humidity;BME280_pressure;Samples;Min_cycle;Max_cycle;Signal;HPM_P1;HPM_P2
2021/12/15 00:00:56;;;;;;;1.95;1.67;;;;;;;18.08;60.56;99523.38;3123209;28;20510;-46
2021/12/15 00:02:29;;;;;;;1.30;1.20;;;;;;;18.06;60.59;99522.72;3124508;28;20045;-45
2021/12/15 00:04:02;;;;;;;1.63;1.40;;;;;;;18.05;60.38;99510.31;3124541;28;20107;-46
2021/12/15 00:05:35;;;;;;;2.38;1.50;;;;;;;18.03;60.43;99515.00;3124862;28;20470;-46
2021/12/15 00:07:07;;;;;;;2.47;1.50;;;;;;;18.02;60.56;99516.00;3124593;28;20049;-44
2021/12/15 00:08:40;;;;;;;2.58;1.58;;;;;;;18.00;60.49;99515.38;3123804;28;20068;-44
2021/12/15 00:10:12;;;;;;;1.70;1.27;;;;;;;17.98;60.52;99508.50;3124882;28;21102;-44
2021/12/15 00:11:44;;;;;;;1.40;1.23;;;;;;;17.96;60.67;99508.66;3126392;28;20852;-44
2021/12/15 00:13:18;;;;;;;1.23;1.13;;;;;;;17.97;60.44;99509.50;3127618;28;20655;-45
2021/12/15 00:14:51;;;;;;;1.77;1.40;;;;;;;17.94;60.67;99509.88;3125358;28;20071;-44
2021/12/15 00:16:21;;;;;;;1.20;1.00;;;;;;;17.93;60.48;99502.84;3126837;28;20131;-45
2021/12/15 00:17:54;;;;;;;1.20;1.10;;;;;;;17.91;60.74;99512.91;3125859;28;20052;-45
2021/12/15 00:19:27;;;;;;;1.65;1.23;;;;;;;17.89;60.76;99504.22;3127072;28;20467;-47
2021/12/15 00:20:59;;;;;;;2.05;1.45;;;;;;;17.88;60.60;99511.41;3125380;28;20053;-45
2021/12/15 00:22:32;;;;;;;1.55;1.45;;;;;;;17.84;60.65;99505.56;3126638;28;21024;-46
2021/12/15 00:24:05;;;;;;;1.38;1.23;;;;;;;17.82;60.87;99504.91;3126497;28;20053;-45
2021/12/15 00:25:41;;;;;;;1.48;1.33;;;;;;;17.81;60.69;99499.72;3126463;28;20049;-46
2021/12/15 00:27:13;;;;;;;1.85;1.48;;;;;;;17.80;60.67;99498.03;3126012;28;20136;-44
2021/12/15 00:28:46;;;;;;;2.03;1.30;;;;;;;17.77;60.80;99498.38;3126411;28;20063;-45
2021/12/15 00:30:18;;;;;;;1.45;1.10;;;;;;;17.75;60.85;99495.06;3126826;28;20077;-48
2021/12/15 00:31:50;;;;;;;1.55;1.27;;;;;;;17.73;60.90;99497.06;3126580;28;20064;-45
2021/12/15 00:33:22;;;;;;;1.67;1.58;;;;;;;17.72;60.75;99498.06;3126082;28;20810;-44
2021/12/15 00:34:54;;;;;;;2.05;1.38;;;;;;;17.70;60.81;99497.41;3125824;28;20121;-45
2021/12/15 00:36:26;;;;;;;2.55;1.50;;;;;;;17.68;60.82;99494.91;3126887;28;20056;-44
2021/12/15 00:37:59;;;;;;;2.20;1.40;;;;;;;17.67;60.83;99497.78;3124169;28;20052;-47
2021/12/15 00:39:32;;;;;;;3.20;1.52;;;;;;;17.66;60.80;99494.22;3126399;28;20053;-44
2021/12/15 00:41:05;;;;;;;1.90;1.67;;;;;;;17.63;60.98;99502.63;3123807;28;20128;-45
2021/12/15 00:42:36;;;;;;;2.80;1.67;;;;;;;17.63;60.91;99498.13;3125837;28;20049;-47
2021/12/15 00:44:10;;;;;;;2.75;1.58;;;;;;;17.61;60.72;99502.00;3125976;28;20610;-45
2021/12/15 00:45:43;;;;;;;1.58;1.48;;;;;;;17.60;60.92;99497.63;3125696;28;20053;-45
2021/12/15 00:47:15;;;;;;;1.70;1.60;;;;;;;17.58;60.89;99500.50;3120769;28;20099;-47
2021/12/15 00:48:48;;;;;;;1.77;1.30;;;;;;;17.55;60.92;99500.84;3125448;28;20056;-45
2021/12/15 00:50:23;;;;;;;3.05;1.50;;;;;;;17.53;60.99;99502.03;3125537;28;20045;-45
2021/12/15 00:51:55;;;;;;;1.50;1.23;;;;;;;17.51;61.00;99507.56;3126596;28;20084;-45
2021/12/15 00:53:28;;;;;;;2.30;1.48;;;;;;;17.50;61.05;99511.28;3127373;28;20136;-47
2021/12/15 00:55:00;;;;;;;3.25;1.73;;;;;;;17.49;61.04;99511.44;3124637;28;20076;-44
2021/12/15 00:56:34;;;;;;;1.40;1.30;;;;;;;17.47;61.03;99506.25;3125438;28;20132;-44
2021/12/15 00:58:08;;;;;;;1.80;1.25;;;;;;;17.45;61.08;99510.94;3126008;28;20045;-44
2021/12/15 00:59:40;;;;;;;1.60;1.25;;;;;;;17.43;61.12;99513.78;3126452;28;20708;-45
2021/12/15 01:01:12;;;;;;;1.48;1.30;;;;;;;17.42;61.12;99512.13;3124121;28;20045;-44
2021/12/15 01:02:44;;;;;;;1.42;1.13;;;;;;;17.38;61.09;99505.47;3125904;28;20049;-45
2021/12/15 01:04:17;;;;;;;2.00;1.30;;;;;;;17.38;61.19;99509.97;3118448;28;20064;-46
2021/12/15 01:05:52;;;;;;;1.80;1.30;;;;;;;17.35;61.28;99510.31;3124492;28;20959;-44
2021/12/15 01:07:24;;;;;;;1.13;1.00;;;;;;;17.35;61.22;99513.81;3125171;28;20056;-44
2021/12/15 01:09:02;;;;;;;1.63;1.40;;;;;;;17.33;61.17;99515.88;3123052;28;20068;-45
2021/12/15 01:10:51;;;;;;;3.17;1.85;;;;;;;17.33;61.12;99517.72;3125275;28;20155;-45
2021/12/15 01:12:50;;;;;;;2.55;1.45;;;;;;;17.31;61.23;99519.72;3124017;28;20055;-44
2021/12/15 01:19:46;;;;;;;2.55;1.30;;;;;;;17.30;61.23;99520.72;3124911;28;20643;-44
2021/12/15 01:20:10;;;;;;;2.30;1.52;;;;;;;17.22;61.34;99513.56;3123803;28;20058;-44
2021/12/15 01:21:42;;;;;;;1.30;1.20;;;;;;;17.19;61.30;99514.75;3124124;28;20080;-45
2021/12/15 01:23:17;;;;;;;2.35;1.63;;;;;;;17.19;61.37;99514.75;3121868;28;20053;-44
2021/12/15 01:24:52;;;;;;;2.58;1.42;;;;;;;17.18;61.21;99520.28;3123072;28;20230;-45
2021/12/15 01:26:24;;;;;;;1.70;1.58;;;;;;;17.17;61.30;99521.28;3124995;28;20780;-46
2021/12/15 01:27:56;;;;;;;1.90;1.30;;;;;;;17.16;61.39;99525.81;3123677;28;20147;-44
2021/12/15 01:29:27;;;;;;;2.40;1.95;;;;;;;17.13;61.34;99526.16;3122676;28;20056;-46
2021/12/15 01:31:00;;;;;;;2.77;1.30;;;;;;;17.12;61.37;99521.78;3122244;28;20552;-44
2021/12/15 01:32:32;;;;;;;2.55;1.45;;;;;;;17.10;61.44;99529.16;3124221;28;20124;-45
2021/12/15 01:34:04;;;;;;;1.60;1.48;;;;;;;17.08;61.40;99525.84;3123780;28;20056;-44
2021/12/15 01:35:38;;;;;;;1.42;1.33;;;;;;;17.09;61.39;99529.34;3122052;28;20143;-45
2021/12/15 01:37:12;;;;;;;1.80;1.50;;;;;;;17.06;61.44;99524.34;3123870;28;20180;-44
2021/12/15 01:38:47;;;;;;;2.60;1.40;;;;;;;17.06;61.44;99525.16;3121650;28;20044;-45
2021/12/15 01:40:36;;;;;;;1.55;1.10;;;;;;;17.03;61.47;99520.16;3123573;28;21036;-44
2021/12/15 01:42:08;;;;;;;2.13;1.30;;;;;;;17.02;61.40;99521.19;3123922;28;20175;-45
2021/12/15 01:43:51;;;;;;;1.33;1.13;;;;;;;17.00;61.63;99520.50;3125867;28;21018;-44
2021/12/15 01:47:11;;;;;;;2.33;1.40;;;;;;;16.97;61.47;99515.50;3122561;28;20110;-45
2021/12/15 01:48:55;;;;;;;2.42;1.15;;;;;;;16.96;61.55;99517.31;3124442;28;20708;-46
2021/12/15 01:50:27;;;;;;;1.52;1.30;;;;;;;16.95;61.39;99514.81;3122316;28;20044;-46
2021/12/15 01:52:02;;;;;;;1.58;1.40;;;;;;;16.94;61.39;99507.78;3124741;28;20505;-44
2021/12/15 01:53:34;;;;;;;1.48;1.10;;;;;;;16.92;61.64;99512.47;3125532;28;20068;-44
2021/12/15 01:55:10;;;;;;;1.67;1.50;;;;;;;16.91;61.62;99510.78;3120556;28;21276;-44
2021/12/15 01:56:43;;;;;;;1.48;1.30;;;;;;;16.89;61.58;99510.97;3124011;28;20807;-44
2021/12/15 01:58:15;;;;;;;1.80;1.30;;;;;;;16.87;61.56;99502.25;3124472;28;20044;-45
2021/12/15 01:59:49;;;;;;;2.03;1.23;;;;;;;16.85;61.56;99500.75;3124726;28;20220;-46
2021/12/15 02:01:21;;;;;;;1.42;1.33;;;;;;;16.84;61.86;99507.97;3110329;28;20099;-44
2021/12/15 02:02:54;;;;;;;1.80;1.48;;;;;;;16.83;61.70;99505.47;3110804;28;20075;-45
2021/12/15 02:04:26;;;;;;;1.88;1.30;;;;;;;16.83;61.62;99505.47;3110946;28;20045;-47
2021/12/15 02:05:58;;;;;;;1.88;1.33;;;;;;;16.80;61.64;99505.78;3111271;28;20041;-44
2021/12/15 02:07:31;;;;;;;1.80;1.42;;;;;;;16.79;61.69;99509.50;3112774;28;20690;-45
2021/12/15 02:09:04;;;;;;;2.50;1.50;;;;;;;16.77;61.68;99496.28;3111964;28;20103;-45
2021/12/15 02:10:38;;;;;;;2.10;1.35;;;;;;;16.75;61.58;99501.75;3111192;28;20085;-45
2021/12/15 02:12:15;;;;;;;1.80;1.65;;;;;;;16.75;61.65;99507.13;3111060;28;20057;-45
2021/12/15 02:13:47;;;;;;;1.42;1.33;;;;;;;16.72;61.71;99507.47;3112561;28;20065;-44
2021/12/15 02:15:24;;;;;;;2.17;1.45;;;;;;;16.71;61.70;99500.41;3111883;28;20057;-45
2021/12/15 02:16:55;;;;;;;1.75;1.42;;;;;;;16.71;61.67;99499.59;3112035;28;20132;-45
2021/12/15 02:18:29;;;;;;;2.22;1.63;;;;;;;16.68;61.88;99497.25;3111927;28;20129;-44
2021/12/15 02:20:02;;;;;;;2.33;1.30;;;;;;;16.66;61.86;99492.06;3110730;28;20659;-45
2021/12/15 02:21:35;;;;;;;1.98;1.80;;;;;;;16.65;61.79;99494.91;3106171;28;20053;-44
2021/12/15 02:23:09;;;;;;;1.90;1.40;;;;;;;16.63;61.79;99495.09;3111866;28;20195;-44
2021/12/15 02:24:43;;;;;;;1.13;1.02;;;;;;;16.63;61.84;99495.09;3111391;28;20136;-45
2021/12/15 02:26:18;;;;;;;3.88;2.00;;;;;;;16.63;61.78;99495.09;3109240;28;20565;-46
2021/12/15 02:27:51;;;;;;;1.40;1.10;;;;;;;16.61;61.87;99493.59;3111776;28;20049;-46
2021/12/15 02:29:22;;;;;;;1.48;1.20;;;;;;;16.58;61.88;99492.09;3112193;28;20080;-46
2021/12/15 02:30:59;;;;;;;1.25;0.95;;;;;;;16.57;61.88;99495.75;3108664;28;20092;-44
2021/12/15 02:32:42;;;;;;;1.42;1.30;;;;;;;16.58;61.75;99493.94;3111816;28;20168;-45
2021/12/15 02:34:32;;;;;;;2.03;1.50;;;;;;;16.56;61.97;99488.75;3110204;28;20071;-45
2021/12/15 02:37:54;;;;;;;1.80;1.15;;;;;;;16.51;61.94;99489.22;3106405;28;20045;-45
2021/12/15 02:39:26;;;;;;;1.67;1.30;;;;;;;16.51;61.88;99486.56;3109985;28;20136;-44
2021/12/15 02:41:06;;;;;;;1.58;1.13;;;;;;;16.50;61.88;99492.09;3109533;28;20132;-44
2021/12/15 02:42:40;;;;;;;1.48;1.38;;;;;;;16.47;61.89;99489.75;3111927;28;20061;-44
2021/12/15 02:44:15;;;;;;;1.65;1.33;;;;;;;16.45;61.94;99489.09;3111063;28;21145;-45
2021/12/15 02:45:47;;;;;;;1.80;1.27;;;;;;;16.44;62.01;99488.25;3108886;28;20142;-44
2021/12/15 02:47:23;;;;;;;1.90;1.40;;;;;;;16.43;61.87;99481.22;3109770;28;20049;-44
2021/12/15 02:48:55;;;;;;;2.03;1.25;;;;;;;16.42;61.99;99484.06;3110743;28;20072;-44
2021/12/15 02:50:30;;;;;;;1.20;0.85;;;;;;;16.40;61.99;99480.72;3110614;28;20148;-44
2021/12/15 02:52:02;;;;;;;1.38;1.25;;;;;;;16.39;61.96;99481.72;3110258;28;20052;-44
2021/12/15 02:53:36;;;;;;;2.30;1.55;;;;;;;16.38;61.99;99478.22;3112713;28;20045;-45
2021/12/15 02:55:09;;;;;;;1.65;1.55;;;;;;;16.38;62.00;99488.06;3106578;28;20666;-44
2021/12/15 02:56:41;;;;;;;1.63;1.20;;;;;;;16.36;62.06;99487.44;3112936;28;20059;-45
2021/12/15 02:58:13;;;;;;;1.48;1.35;;;;;;;16.36;62.00;99482.06;3109124;28;20061;-45
2021/12/15 02:59:54;;;;;;;2.20;1.67;;;;;;;16.33;62.01;99479.72;3110683;28;20866;-44
2021/12/15 03:01:36;;;;;;;1.63;1.30;;;;;;;16.31;62.16;99483.41;3111645;28;20120;-44
2021/12/15 03:05:09;;;;;;;1.52;1.25;;;;;;;16.31;62.03;99494.09;3087555;28;20103;-45
2021/12/15 03:06:49;;;;;;;1.90;1.30;;;;;;;16.32;62.04;99492.25;3113401;28;20315;-44
2021/12/15 03:08:24;;;;;;;1.98;1.10;;;;;;;16.34;61.96;99495.63;3125140;28;20049;-45
2021/12/15 03:15:30;;;;;;;2.03;1.67;;;;;;;16.41;62.02;99495.75;3123471;28;20128;-44
2021/12/15 03:17:01;;;;;;;1.77;1.48;;;;;;;16.40;61.91;99488.75;3126571;28;20048;-45
2021/12/15 03:18:34;;;;;;;1.85;1.38;;;;;;;16.40;62.03;99489.56;3126176;28;20106;-44
2021/12/15 03:20:09;;;;;;;2.67;1.55;;;;;;;16.41;61.96;99490.41;3126650;28;20060;-48
2021/12/15 03:21:41;;;;;;;1.73;1.40;;;;;;;16.41;61.80;99490.41;3124543;28;20696;-44
2021/12/15 03:23:15;;;;;;;1.63;1.35;;;;;;;16.40;61.92;99494.09;3123013;28;20068;-48
2021/12/15 03:24:47;;;;;;;2.03;1.83;;;;;;;16.41;61.82;99495.75;3122554;28;20048;-45
2021/12/15 03:26:25;;;;;;;2.47;1.60;;;;;;;16.42;61.83;99492.09;3122013;28;20441;-44
2021/12/15 03:33:36;;;;;;;2.22;1.33;;;;;;;16.39;61.91;99492.44;3121972;28;20049;-44
2021/12/15 03:35:20;;;;;;;1.90;1.48;;;;;;;16.40;61.90;99491.44;3122659;28;20049;-44
2021/12/15 03:37:20;;;;;;;1.42;1.20;;;;;;;16.40;61.80;99494.09;3121794;28;20052;-45
2021/12/15 03:38:52;;;;;;;1.70;1.27;;;;;;;16.37;61.81;99494.44;3122006;28;20049;-45
2021/12/15 03:40:26;;;;;;;2.60;1.92;;;;;;;16.38;61.84;99498.78;3122865;28;20542;-46
2021/12/15 03:42:03;;;;;;;2.55;1.58;;;;;;;16.38;61.84;99496.09;3123053;28;20111;-45
2021/12/15 03:43:35;;;;;;;1.88;1.42;;;;;;;16.36;61.78;99490.94;3124686;28;20678;-44
2021/12/15 03:45:11;;;;;;;1.95;1.50;;;;;;;16.38;61.90;99496.09;3121835;28;20760;-45
2021/12/15 03:46:42;;;;;;;1.23;1.10;;;;;;;16.36;61.86;99492.78;3126574;28;20107;-45
2021/12/15 03:48:17;;;;;;;2.65;1.40;;;;;;;16.34;62.03;99490.25;3125582;28;21525;-44
2021/12/15 03:49:50;;;;;;;2.20;1.40;;;;;;;16.35;61.95;99491.91;3126240;28;20052;-45
2021/12/15 03:51:21;;;;;;;1.83;1.38;;;;;;;16.34;61.98;99492.94;3126607;28;20075;-45
2021/12/15 03:52:54;;;;;;;1.67;1.20;;;;;;;16.34;61.77;99494.78;3124597;28;20075;-45
2021/12/15 03:54:26;;;;;;;1.73;1.63;;;;;;;16.33;61.86;99493.13;3126460;28;20128;-45
2021/12/15 03:55:59;;;;;;;1.67;1.42;;;;;;;16.33;61.91;99490.44;3125730;28;20604;-44
2021/12/15 03:57:32;;;;;;;1.83;1.15;;;;;;;16.31;61.96;99488.75;3126361;28;20045;-44
2021/12/15 03:59:04;;;;;;;1.42;1.30;;;;;;;16.29;61.94;99490.75;3125872;28;20504;-44
2021/12/15 04:00:39;;;;;;;1.70;1.27;;;;;;;16.30;62.10;99499.66;3124885;28;20102;-44
2021/12/15 04:02:13;;;;;;;1.50;1.30;;;;;;;16.29;62.20;99496.09;3124422;28;21025;-44
2021/12/15 04:03:47;;;;;;;1.33;1.25;;;;;;;16.28;62.06;99494.44;3126295;28;20067;-44
2021/12/15 04:05:22;;;;;;;1.95;1.42;;;;;;;16.27;61.93;99500.81;3124890;28;20140;-45
2021/12/15 04:06:54;;;;;;;1.63;1.52;;;;;;;16.27;61.96;99500.81;3124625;28;20056;-44
2021/12/15 04:08:27;;;;;;;1.20;1.00;;;;;;;16.27;62.06;99497.31;3126251;28;20088;-45
2021/12/15 04:09:59;;;;;;;2.30;1.58;;;;;;;16.26;61.85;99501.78;3124048;28;20051;-45
2021/12/15 04:11:34;;;;;;;1.60;1.08;;;;;;;16.26;62.02;99500.97;3126165;28;20708;-44
2021/12/15 04:13:09;;;;;;;1.55;1.10;;;;;;;16.25;61.89;99500.13;3125245;28;20055;-46
2021/12/15 04:14:45;;;;;;;1.85;1.33;;;;;;;16.23;62.00;99499.47;3125279;28;21983;-45
2021/12/15 04:16:41;;;;;;;1.50;1.40;;;;;;;16.23;62.01;99499.47;3124797;28;20056;-45
2021/12/15 04:18:12;;;;;;;2.25;1.48;;;;;;;16.21;62.00;99493.44;3123951;28;20056;-46
2021/12/15 04:19:44;;;;;;;1.63;1.33;;;;;;;16.22;61.99;99496.97;3126274;28;20160;-46
2021/12/15 04:21:16;;;;;;;1.98;1.50;;;;;;;16.22;62.00;99495.13;3126312;28;20661;-44
2021/12/15 04:22:48;;;;;;;1.27;1.17;;;;;;;16.20;61.87;99497.13;3126812;28;20053;-48
2021/12/15 04:24:21;;;;;;;2.15;1.75;;;;;;;16.20;61.99;99502.47;3126143;28;20053;-44
2021/12/15 04:25:56;;;;;;;1.80;1.35;;;;;;;16.18;61.99;99496.44;3125233;28;20057;-44
2021/12/15 04:27:28;;;;;;;1.77;1.60;;;;;;;16.18;62.03;99503.63;3124098;28;20049;-44
2021/12/15 04:29:03;;;;;;;2.25;1.65;;;;;;;16.18;62.04;99506.31;3124549;28;20893;-45
2021/12/15 04:30:38;;;;;;;2.08;1.60;;;;;;;16.17;62.13;99501.97;3125638;28;20698;-44
2021/12/15 04:32:15;;;;;;;1.45;1.20;;;;;;;16.17;61.99;99508.16;3126358;28;20080;-44
2021/12/15 04:33:54;;;;;;;1.58;1.15;;;;;;;16.14;61.93;99500.47;3127277;28;20611;-44
2021/12/15 04:35:26;;;;;;;2.25;1.58;;;;;;;16.14;62.10;99510.34;3121599;28;20700;-44
2021/12/15 04:36:58;;;;;;;1.55;1.25;;;;;;;16.12;61.93;99507.81;3125442;28;20091;-44
2021/12/15 04:38:32;;;;;;;1.48;1.27;;;;;;;16.12;62.09;99506.97;3127990;28;20072;-44
2021/12/15 04:40:05;;;;;;;2.05;1.40;;;;;;;16.10;62.00;99509.81;3125206;28;20168;-46
2021/12/15 04:41:37;;;;;;;1.60;1.50;;;;;;;16.09;61.97;99503.63;3124241;28;20227;-45
2021/12/15 04:43:10;;;;;;;1.55;1.30;;;;;;;16.10;62.09;99509.81;3124806;28;20053;-44
2021/12/15 04:44:44;;;;;;;1.85;1.63;;;;;;;16.08;62.10;99512.66;3124348;28;20163;-44
2021/12/15 04:46:15;;;;;;;2.03;1.60;;;;;;;16.07;62.07;99507.47;3124026;28;20120;-45
2021/12/15 04:47:50;;;;;;;1.38;1.27;;;;;;;16.07;62.10;99518.19;3125874;28;20077;-45
2021/12/15 04:49:22;;;;;;;1.85;1.08;;;;;;;16.05;62.29;99518.34;3124412;28;20040;-44
2021/12/15 04:50:54;;;;;;;2.05;1.63;;;;;;;16.05;61.92;99520.19;3124950;28;20147;-45
2021/12/15 04:52:28;;;;;;;1.88;1.35;;;;;;;16.04;62.09;99516.66;3119893;28;20064;-45
2021/12/15 04:54:00;;;;;;;2.35;1.60;;;;;;;16.02;62.12;99518.69;3124138;28;20059;-45
2021/12/15 04:55:33;;;;;;;1.52;1.38;;;;;;;16.02;62.08;99523.22;3123533;28;20049;-43
2021/12/15 04:57:06;;;;;;;1.65;1.55;;;;;;;16.01;62.07;99521.53;3124545;28;20045;-44
2021/12/15 04:58:38;;;;;;;1.73;1.40;;;;;;;15.99;62.18;99519.03;3125494;28;20076;-45
2021/12/15 05:00:14;;;;;;;2.95;1.55;;;;;;;15.99;62.10;99524.38;3124745;28;20697;-44
2021/12/15 05:01:46;;;;;;;2.50;1.35;;;;;;;15.98;62.18;99524.53;3123336;28;20048;-45
2021/12/15 05:03:18;;;;;;;;;;;;;;;15.97;62.19;99520.19;3126056;28;20075;-44
2021/12/15 05:04:51;;;;;;;1.63;1.23;;;;;;;15.97;62.07;99525.53;3125105;28;19929;-45
2021/12/15 05:06:24;;;;;;;2.05;1.40;;;;;;;15.96;62.13;99523.84;3125594;28;20048;-46
2021/12/15 05:07:56;;;;;;;1.58;1.17;;;;;;;15.97;61.92;99528.22;3124532;28;20063;-44
2021/12/15 05:09:28;;;;;;;2.20;1.45;;;;;;;15.98;62.13;99528.03;3122853;28;20574;-45
2021/12/15 05:11:00;;;;;;;1.20;1.10;;;;;;;16.01;62.26;99526.88;3121682;28;20053;-44
2021/12/15 05:12:32;;;;;;;3.22;1.35;;;;;;;16.06;62.13;99530.72;3121387;28;20103;-44
2021/12/15 05:14:05;;;;;;;2.72;1.58;;;;;;;16.12;62.19;99531.91;3123759;28;20091;-45
2021/12/15 05:15:39;;;;;;;2.00;1.38;;;;;;;16.20;61.87;99531.09;3122633;28;20785;-44
2021/12/15 05:17:11;;;;;;;1.52;1.40;;;;;;;16.27;61.74;99532.94;3121908;28;20140;-46
2021/12/15 05:18:43;;;;;;;3.00;1.40;;;;;;;16.34;61.73;99535.78;3123898;28;20643;-45
2021/12/15 05:20:15;;;;;;;1.65;1.20;;;;;;;16.41;61.57;99538.59;3122237;28;20136;-44
2021/12/15 05:21:48;;;;;;;1.83;1.38;;;;;;;16.48;61.45;99534.25;3123059;28;20037;-45
2021/12/15 05:23:21;;;;;;;1.27;1.10;;;;;;;16.56;61.52;99542.31;3124323;28;20049;-44
2021/12/15 05:24:53;;;;;;;1.70;1.17;;;;;;;16.62;61.29;99541.63;3124696;28;20053;-45
2021/12/15 05:26:25;;;;;;;1.42;1.15;;;;;;;16.68;61.31;99546.28;3123180;28;20742;-46
2021/12/15 05:27:57;;;;;;;1.70;1.60;;;;;;;16.74;61.16;99542.09;3121879;28;20056;-45
2021/12/15 05:29:30;;;;;;;1.13;1.02;;;;;;;16.80;61.24;99552.19;3122605;28;20049;-44
2021/12/15 05:31:03;;;;;;;1.75;1.42;;;;;;;16.86;61.00;99548.00;3120760;28;20049;-45
2021/12/15 05:32:35;;;;;;;1.85;1.40;;;;;;;16.92;61.00;99550.00;3121933;28;20596;-44
2021/12/15 05:34:07;;;;;;;1.10;1.00;;;;;;;16.96;60.85;99554.81;3123280;28;20102;-44
2021/12/15 05:35:39;;;;;;;0.85;0.82;;;;;;;17.03;60.82;99554.16;3121813;28;20053;-44
2021/12/15 05:37:11;;;;;;;1.58;1.25;;;;;;;17.05;60.64;99555.66;3119822;28;20187;-44
2021/12/15 05:38:43;;;;;;;1.42;1.27;;;;;;;17.09;60.68;99565.03;3124434;28;20778;-45
2021/12/15 05:40:14;;;;;;;2.88;1.23;;;;;;;17.10;60.66;99564.00;3124283;28;20128;-45
2021/12/15 05:41:47;;;;;;;1.13;0.90;;;;;;;17.14;60.43;99557.31;3124513;28;20127;-44
2021/12/15 05:43:19;;;;;;;1.05;1.00;;;;;;;17.18;60.59;99560.47;3124072;28;20040;-45
2021/12/15 05:44:51;;;;;;;1.33;1.13;;;;;;;17.21;60.43;99562.81;3124192;28;20446;-45
2021/12/15 05:46:24;;;;;;;1.08;0.95;;;;;;;17.26;60.47;99565.00;3121821;28;20064;-45
2021/12/15 05:47:58;;;;;;;1.60;1.10;;;;;;;17.29;60.39;99560.13;3124292;28;20055;-45
2021/12/15 05:49:30;;;;;;;1.35;0.93;;;;;;;17.33;60.27;99560.63;3125456;28;20060;-44
2021/12/15 05:51:02;;;;;;;2.15;1.48;;;;;;;17.37;60.29;99561.94;3123165;28;20458;-45
2021/12/15 05:52:34;;;;;;;1.13;1.02;;;;;;;17.40;60.16;99561.59;3126050;28;20056;-48
2021/12/15 05:54:07;;;;;;;2.00;1.58;;;;;;;17.42;60.17;99559.56;3125571;28;20083;-44
2021/12/15 05:55:39;;;;;;;1.17;1.08;;;;;;;17.45;60.22;99556.53;3125060;28;20048;-44
2021/12/15 05:57:11;;;;;;;1.45;1.27;;;;;;;17.48;60.23;99556.19;3124348;28;20053;-44
2021/12/15 05:58:43;;;;;;;2.08;1.27;;;;;;;17.52;60.06;99562.88;3123289;28;20132;-45
2021/12/15 06:00:18;;;;;;;1.55;0.85;;;;;;;17.55;60.05;99565.22;3124644;28;20059;-48
2021/12/15 06:01:51;;;;;;;1.25;1.15;;;;;;;17.60;60.04;99564.69;3125804;28;20164;-46
2021/12/15 06:03:23;;;;;;;1.48;1.20;;;;;;;17.63;59.89;99567.03;3125146;28;20045;-47
2021/12/15 06:04:55;;;;;;;1.10;1.02;;;;;;;17.65;59.81;99571.19;3124650;28;20055;-53
2021/12/15 06:06:28;;;;;;;1.25;1.15;;;;;;;17.69;59.85;99573.53;3125098;28;20041;-48
2021/12/15 06:08:00;;;;;;;2.20;1.30;;;;;;;17.71;59.79;99566.97;3122334;28;20045;-50
2021/12/15 06:09:31;;;;;;;1.38;0.98;;;;;;;17.75;59.70;99576.38;3120704;28;20140;-46
2021/12/15 06:11:04;;;;;;;1.90;1.33;;;;;;;17.75;59.78;99580.91;3122565;28;20655;-46
2021/12/15 06:12:36;;;;;;;0.88;0.75;;;;;;;17.78;59.78;99576.06;3122379;28;20550;-46
2021/12/15 06:14:08;;;;;;;1.52;0.95;;;;;;;17.80;59.73;99578.53;3123402;28;20075;-48
2021/12/15 06:15:42;;;;;;;1.88;1.27;;;;;;;17.81;59.74;99574.88;3122160;28;20786;-48
2021/12/15 06:17:15;;;;;;;0.95;0.95;;;;;;;17.83;59.60;99578.22;3120192;28;20091;-48
2021/12/15 06:18:48;;;;;;;1.27;1.17;;;;;;;17.83;59.65;99573.69;3124232;28;20406;-50
2021/12/15 06:20:20;;;;;;;1.23;0.95;;;;;;;17.84;59.61;99580.72;3117914;28;20041;-47
2021/12/15 06:21:52;;;;;;;1.15;1.08;;;;;;;17.86;59.60;99583.22;3110282;28;20144;-49
2021/12/15 06:23:24;;;;;;;1.13;1.00;;;;;;;17.86;59.61;99583.22;3107808;28;20073;-46
2021/12/15 06:24:57;;;;;;;1.00;0.73;;;;;;;17.88;59.61;99580.34;3109615;28;20733;-50
2021/12/15 06:26:29;;;;;;;1.00;1.00;;;;;;;17.88;59.59;99580.34;3104885;28;20056;-47
2021/12/15 06:28:01;;;;;;;1.00;0.90;;;;;;;17.88;59.58;99583.88;3106717;28;20199;-49
2021/12/15 06:29:33;;;;;;;1.00;1.00;;;;;;;17.88;59.58;99586.56;3111038;28;20041;-50
2021/12/15 06:31:09;;;;;;;1.60;1.20;;;;;;;17.89;59.67;99590.94;3110787;28;20052;-48
2021/12/15 06:32:43;;;;;;;2.42;1.30;;;;;;;17.89;59.54;99592.78;3110740;28;20136;-45
2021/12/15 06:34:16;;;;;;;1.75;1.40;;;;;;;17.90;59.65;99583.72;3112211;28;20049;-44
2021/12/15 06:35:53;;;;;;;1.02;1.02;;;;;;;17.89;59.64;99582.06;3110226;28;20060;-47
2021/12/15 06:37:25;;;;;;;1.45;1.23;;;;;;;17.89;59.57;99590.94;3106162;28;20069;-52
2021/12/15 06:38:57;;;;;;;1.08;0.75;;;;;;;17.88;59.71;99586.56;3108970;28;20045;-45
2021/12/15 06:40:29;;;;;;;1.67;0.82;;;;;;;17.88;59.55;99591.91;3104869;28;20128;-46
2021/12/15 06:42:01;;;;;;;1.40;1.05;;;;;;;17.88;59.48;99583.88;3110224;28;20111;-47
2021/12/15 06:43:33;;;;;;;1.70;1.08;;;;;;;17.88;59.66;99593.78;3112709;28;20045;-44
2021/12/15 06:45:07;;;;;;;1.75;1.15;;;;;;;17.87;59.51;99595.63;3110429;28;20045;-45
2021/12/15 06:59:22;;;;;;;1.35;1.02;;;;;;;17.90;59.71;99605.19;3122952;28;20049;-44
2021/12/15 07:00:57;;;;;;;1.33;1.00;;;;;;;17.89;59.47;99601.66;3119180;28;20060;-44
2021/12/15 07:02:29;;;;;;;0.75;0.70;;;;;;;17.90;59.50;99606.00;3117697;28;20049;-45
2021/12/15 07:04:02;;;;;;;1.08;0.90;;;;;;;17.91;59.48;99599.63;3121240;28;20048;-49
2021/12/15 07:05:34;;;;;;;1.13;0.95;;;;;;;17.90;59.55;99606.00;3123822;28;20060;-50
2021/12/15 07:07:06;;;;;;;1.75;1.25;;;;;;;17.92;59.54;99613.91;3124667;28;20056;-46
2021/12/15 07:08:38;;;;;;;1.13;0.80;;;;;;;17.91;59.47;99606.84;3125257;28;20079;-49
2021/12/15 07:10:14;;;;;;;1.42;0.90;;;;;;;17.91;59.54;99598.78;3122314;28;20084;-47
2021/12/15 07:11:46;;;;;;;1.10;0.95;;;;;;;17.90;59.52;99611.38;3125943;28;20104;-45
2021/12/15 07:13:18;;;;;;;1.63;1.20;;;;;;;17.91;59.46;99604.16;3121773;28;20061;-45
2021/12/15 07:14:49;;;;;;;1.00;0.90;;;;;;;17.91;59.52;99606.84;3119816;28;20053;-49
2021/12/15 07:16:21;;;;;;;1.25;0.90;;;;;;;17.90;59.53;99613.22;3121625;28;20140;-46
2021/12/15 07:18:00;;;;;;;1.55;0.90;;;;;;;17.89;59.59;99615.09;3103786;28;20049;-46
2021/12/15 07:19:51;;;;;;;1.13;0.90;;;;;;;17.88;59.59;99613.41;3117819;28;20654;-50
2021/12/15 07:21:25;;;;;;;1.45;1.08;;;;;;;17.88;59.58;99613.41;3120652;28;20044;-50
2021/12/15 07:22:56;;;;;;;1.50;1.20;;;;;;;17.88;59.46;99624.13;3122211;28;20063;-47
2021/12/15 07:24:29;;;;;;;0.93;0.82;;;;;;;17.88;59.64;99621.44;3121121;28;20049;-47
2021/12/15 07:26:01;;;;;;;0.77;0.70;;;;;;;17.88;59.53;99621.44;3121808;28;20549;-46
2021/12/15 07:27:33;;;;;;;1.10;1.00;;;;;;;17.89;59.78;99616.94;3119067;28;20057;-48
2021/12/15 07:29:05;;;;;;;0.85;0.80;;;;;;;17.89;59.65;99620.44;3119330;28;20191;-47
2021/12/15 07:30:38;;;;;;;1.48;1.15;;;;;;;17.91;59.55;99626.47;3121414;28;20089;-51
2021/12/15 07:32:10;;;;;;;1.00;0.90;;;;;;;17.91;59.48;99626.47;3119487;28;20830;-47
2021/12/15 07:33:42;;;;;;;1.33;1.10;;;;;;;17.91;59.63;99629.16;3122274;28;20135;-50
2021/12/15 07:35:18;;;;;;;1.30;0.95;;;;;;;17.93;59.53;99627.13;3120073;28;20148;-46
2021/12/15 07:36:49;;;;;;;0.93;0.85;;;;;;;17.93;59.53;99629.81;3119378;28;20144;-48
2021/12/15 07:38:22;;;;;;;1.17;1.02;;;;;;;17.94;59.61;99631.50;3119495;28;20111;-47
2021/12/15 07:39:58;;;;;;;1.30;1.15;;;;;;;17.95;59.69;99633.16;3120934;28;20115;-44
2021/12/15 07:41:36;;;;;;;1.33;1.05;;;;;;;17.95;59.59;99638.53;3121595;28;20052;-44
2021/12/15 07:43:13;;;;;;;2.05;1.20;;;;;;;17.95;59.59;99635.84;3119492;28;20762;-50
2021/12/15 07:44:45;;;;;;;1.75;1.00;;;;;;;17.95;59.66;99635.84;3119341;28;20048;-50
2021/12/15 07:46:16;;;;;;;0.60;0.60;;;;;;;17.95;59.44;99632.34;3118403;28;20079;-49
2021/12/15 07:47:48;;;;;;;1.65;1.13;;;;;;;17.94;59.49;99638.69;3120901;28;20132;-46
2021/12/15 07:49:22;;;;;;;1.00;0.80;;;;;;;17.94;59.66;99633.31;3118801;28;20049;-47
2021/12/15 07:50:58;;;;;;;1.02;0.80;;;;;;;17.93;59.60;99634.34;3121299;28;20102;-46
2021/12/15 07:52:30;;;;;;;1.55;1.00;;;;;;;17.93;59.67;99629.81;3109216;28;20057;-44
2021/12/15 07:54:01;;;;;;;1.27;1.13;;;;;;;17.94;59.44;99639.56;3111020;28;20049;-46
2021/12/15 07:55:33;;;;;;;1.55;1.10;;;;;;;17.93;59.67;99639.72;3107397;28;20129;-49